createdAt,value
2023-05-09T00:00:07.008Z,7.63
2023-05-09T00:00:34.668Z,7.07
2023-05-09T00:01:07.412Z,7.07
2023-05-09T00:01:19.925Z,7.63
2023-05-09T00:01:32.769Z,7.85
2023-05-09T00:01:46.471Z,7.65
2023-05-09T00:01:59.373Z,7.45
2023-05-09T00:02:12.958Z,7.38
2023-05-09T00:02:25.848Z,7.35
2023-05-09T00:02:38.799Z,7.30
2023-05-09T00:02:51.535Z,7.30
2023-05-09T00:03:05.972Z,7.15
2023-05-09T00:03:18.571Z,7.30
2023-05-09T00:03:31.092Z,7.53
2023-05-09T00:03:44.731Z,7.40
2023-05-09T00:03:58.384Z,7.40
2023-05-09T00:04:11.239Z,7.30
2023-05-09T00:04:24.243Z,7.10
2023-05-09T00:04:37.393Z,7.22
2023-05-09T00:04:50.091Z,7.25
2023-05-09T00:05:03.935Z,7.47
2023-05-09T00:05:16.671Z,7.60
2023-05-09T00:05:29.746Z,7.50
2023-05-09T00:05:42.278Z,7.53
2023-05-09T00:05:54.757Z,7.50
2023-05-09T00:06:07.490Z,7.13
2023-05-09T00:06:20.089Z,6.97
2023-05-09T00:06:33.840Z,7.32
2023-05-09T00:06:46.494Z,7.50
2023-05-09T00:06:59.020Z,7.40
2023-05-09T00:07:12.970Z,7.68
2023-05-09T00:07:25.484Z,7.60
2023-05-09T00:07:38.174Z,7.63
2023-05-09T00:07:50.661Z,7.47
2023-05-09T00:08:03.350Z,7.40
2023-05-09T00:08:17.113Z,7.32
2023-05-09T00:08:30.029Z,7.18
2023-05-09T00:08:42.567Z,7.00
2023-05-09T00:08:55.814Z,7.07
2023-05-09T00:09:08.323Z,7.40
2023-05-09T00:09:20.876Z,7.35
2023-05-09T00:09:33.353Z,7.50
2023-05-09T00:09:46.866Z,7.32
2023-05-09T00:10:00.405Z,7.57
2023-05-09T00:10:13.512Z,7.50
2023-05-09T00:10:27.180Z,7.40
2023-05-09T00:10:39.743Z,7.40
2023-05-09T00:10:52.230Z,7.72
2023-05-09T00:11:05.125Z,7.63
2023-05-09T00:11:18.597Z,7.13
2023-05-09T00:11:31.341Z,7.28
2023-05-09T00:11:44.179Z,7.57
2023-05-09T00:11:56.713Z,7.50
2023-05-09T00:12:09.945Z,7.20
2023-05-09T00:12:22.511Z,7.13
2023-05-09T00:12:35.033Z,7.40
2023-05-09T00:12:49.447Z,7.50
2023-05-09T00:13:02.079Z,7.18
2023-05-09T00:13:14.744Z,7.35
2023-05-09T00:13:27.434Z,7.70
2023-05-09T00:13:40.032Z,7.78
2023-05-09T00:13:53.359Z,7.90
2023-05-09T00:14:06.675Z,7.80
2023-05-09T00:14:20.456Z,7.50
2023-05-09T00:14:33.627Z,7.57
2023-05-09T00:14:48.231Z,7.72
2023-05-09T00:15:01.120Z,7.63
2023-05-09T00:15:13.775Z,7.47
2023-05-09T00:15:26.797Z,7.45
2023-05-09T00:15:39.386Z,7.47
2023-05-09T00:15:54.082Z,7.30
2023-05-09T00:16:08.294Z,7.10
2023-05-09T00:16:23.930Z,7.00
2023-05-09T00:16:36.872Z,7.00
2023-05-09T00:16:49.477Z,7.40
2023-05-09T00:17:02.063Z,7.60
2023-05-09T00:17:15.741Z,7.38
2023-05-09T00:17:28.659Z,7.13
2023-05-09T00:17:41.446Z,7.50
2023-05-09T00:17:54.523Z,7.50
2023-05-09T00:18:07.481Z,7.45
2023-05-09T00:18:20.290Z,7.82
2023-05-09T00:18:34.150Z,7.63
2023-05-09T00:18:47.549Z,7.40
2023-05-09T00:19:00.184Z,7.50
2023-05-09T00:19:13.111Z,7.85
2023-05-09T00:19:25.770Z,7.68
2023-05-09T00:19:39.160Z,7.20
2023-05-09T00:19:53.009Z,7.50
2023-05-09T00:20:10.993Z,7.60
2023-05-09T00:20:23.672Z,7.05
2023-05-09T00:20:36.220Z,7.18
2023-05-09T00:20:48.791Z,7.20
2023-05-09T00:21:02.437Z,7.25
2023-05-09T00:21:15.091Z,7.03
2023-05-09T00:21:28.173Z,7.15
2023-05-09T00:21:41.060Z,7.15
2023-05-09T00:21:55.267Z,7.20
2023-05-09T00:22:09.200Z,7.38
2023-05-09T00:22:23.058Z,7.30
2023-05-09T00:22:35.608Z,7.43
2023-05-09T00:22:48.112Z,7.20
2023-05-09T00:23:00.760Z,7.10
2023-05-09T00:23:14.238Z,7.35
2023-05-09T00:23:26.981Z,7.38
2023-05-09T00:23:39.531Z,7.35
2023-05-09T00:23:52.064Z,7.30
2023-05-09T00:24:05.435Z,7.20
2023-05-09T00:24:18.031Z,7.00
2023-05-09T00:24:31.552Z,7.03
2023-05-09T00:24:44.138Z,7.43
2023-05-09T00:24:56.640Z,7.60
2023-05-09T00:25:10.849Z,7.45
2023-05-09T00:25:23.521Z,7.20
2023-05-09T00:25:36.194Z,7.30
2023-05-09T00:25:48.654Z,7.30
2023-05-09T00:26:01.515Z,7.40
2023-05-09T00:26:14.007Z,7.38
2023-05-09T00:26:27.488Z,7.53
2023-05-09T00:26:40.004Z,7.53
2023-05-09T00:26:52.545Z,7.47
2023-05-09T00:27:05.493Z,7.38
2023-05-09T00:27:18.365Z,7.60
2023-05-09T00:27:30.909Z,7.63
2023-05-09T00:27:43.397Z,7.47
2023-05-09T00:27:56.928Z,7.32
2023-05-09T00:28:09.510Z,7.20
2023-05-09T00:28:22.235Z,7.30
2023-05-09T00:28:34.932Z,7.57
2023-05-09T00:28:47.420Z,7.82
2023-05-09T00:28:59.888Z,7.57
2023-05-09T00:29:13.370Z,7.60
2023-05-09T00:29:25.888Z,7.32
2023-05-09T00:29:38.391Z,7.18
2023-05-09T00:29:50.896Z,6.95
2023-05-09T00:30:04.540Z,7.15
2023-05-09T00:30:17.108Z,7.53
2023-05-09T00:30:29.642Z,7.45
2023-05-09T00:30:43.145Z,7.57
2023-05-09T00:30:55.983Z,7.45
2023-05-09T00:31:08.525Z,7.30
2023-05-09T00:31:21.413Z,7.32
2023-05-09T00:31:34.093Z,7.50
2023-05-09T00:31:46.629Z,7.57
2023-05-09T00:31:59.213Z,7.40
2023-05-09T00:32:11.881Z,7.43
2023-05-09T00:32:25.745Z,7.60
2023-05-09T00:32:40.306Z,7.20
2023-05-09T00:32:53.002Z,7.30
2023-05-09T00:33:06.442Z,7.60
2023-05-09T00:33:19.621Z,7.68
2023-05-09T00:33:32.153Z,7.50
2023-05-09T00:33:44.682Z,7.40
2023-05-09T00:33:57.250Z,7.20
2023-05-09T00:34:11.005Z,6.85
2023-05-09T00:34:23.662Z,6.80
2023-05-09T00:34:36.461Z,7.07
2023-05-09T00:34:48.944Z,7.43
2023-05-09T00:35:01.437Z,7.60
2023-05-09T00:35:14.032Z,7.28
2023-05-09T00:35:28.029Z,7.20
2023-05-09T00:35:40.555Z,7.50
2023-05-09T00:35:53.130Z,7.80
2023-05-09T00:36:06.271Z,7.47
2023-05-09T00:36:18.771Z,6.97
2023-05-09T00:36:32.166Z,7.05
2023-05-09T00:36:44.678Z,7.30
2023-05-09T00:36:58.155Z,7.80
2023-05-09T00:37:10.740Z,7.72
2023-05-09T00:37:24.647Z,7.50
2023-05-09T00:37:37.161Z,7.13
2023-05-09T00:37:49.669Z,7.03
2023-05-09T00:38:02.170Z,7.22
2023-05-09T00:38:15.022Z,7.57
2023-05-09T00:38:28.719Z,7.55
2023-05-09T00:38:41.189Z,7.75
2023-05-09T00:38:53.681Z,7.85
2023-05-09T00:39:06.278Z,7.72
2023-05-09T00:39:18.914Z,7.53
2023-05-09T00:39:31.434Z,7.60
2023-05-09T00:39:43.977Z,7.70
2023-05-09T00:39:57.479Z,7.78
2023-05-09T00:40:10.847Z,7.65
2023-05-09T00:40:23.522Z,7.50
2023-05-09T00:40:36.057Z,7.45
2023-05-09T00:40:48.565Z,7.88
2023-05-09T00:41:01.087Z,7.82
2023-05-09T00:41:13.592Z,7.63
2023-05-09T00:41:27.137Z,7.60
2023-05-09T00:41:39.694Z,7.70
2023-05-09T00:41:52.832Z,7.70
2023-05-09T00:42:05.764Z,7.82
2023-05-09T00:42:18.296Z,8.00
2023-05-09T00:42:31.198Z,8.00
2023-05-09T00:42:43.727Z,7.72
2023-05-09T00:42:58.666Z,7.65
2023-05-09T00:43:12.283Z,7.53
2023-05-09T00:43:24.828Z,7.32
2023-05-09T00:43:37.314Z,7.43
2023-05-09T00:43:49.801Z,7.90
2023-05-09T00:44:02.393Z,7.85
2023-05-09T00:44:14.970Z,7.70
2023-05-09T00:44:27.512Z,7.80
2023-05-09T00:44:40.101Z,7.90
2023-05-09T00:44:53.631Z,7.85
2023-05-09T00:45:07.284Z,7.85
2023-05-09T00:45:19.986Z,8.02
2023-05-09T00:45:32.614Z,8.13
2023-05-09T00:45:45.693Z,7.60
2023-05-09T00:45:58.295Z,7.70
2023-05-09T00:46:11.726Z,7.47
2023-05-09T00:46:25.375Z,7.15
2023-05-09T00:46:38.816Z,7.35
2023-05-09T00:46:51.398Z,7.50
2023-05-09T00:47:03.952Z,7.50
2023-05-09T00:47:16.596Z,7.30
2023-05-09T00:47:29.644Z,7.60
2023-05-09T00:47:42.794Z,7.72
2023-05-09T00:47:55.800Z,7.57
2023-05-09T00:48:09.465Z,7.75
2023-05-09T00:48:22.516Z,7.93
2023-05-09T00:48:35.878Z,7.90
2023-05-09T00:48:48.491Z,7.88
2023-05-09T00:49:01.045Z,7.70
2023-05-09T00:49:13.711Z,7.85
2023-05-09T00:49:26.376Z,7.93
2023-05-09T00:49:40.167Z,7.97
2023-05-09T00:49:52.796Z,8.00
2023-05-09T00:50:07.330Z,8.00
2023-05-09T00:50:19.868Z,7.80
2023-05-09T00:50:32.434Z,7.72
2023-05-09T00:50:45.002Z,8.13
2023-05-09T00:50:57.748Z,8.30
2023-05-09T00:51:10.358Z,8.00
2023-05-09T00:51:23.601Z,7.55
2023-05-09T00:51:38.300Z,7.57
2023-05-09T00:51:52.841Z,7.50
2023-05-09T00:52:05.752Z,7.50
2023-05-09T00:52:23.063Z,7.65
2023-05-09T00:52:37.567Z,8.07
2023-05-09T00:52:50.900Z,8.40
2023-05-09T00:53:05.456Z,8.32
2023-05-09T00:53:18.481Z,7.93
2023-05-09T00:53:31.435Z,7.88
2023-05-09T00:53:44.503Z,8.15
2023-05-09T00:53:57.259Z,8.15
2023-05-09T00:54:09.936Z,8.07
2023-05-09T00:54:23.572Z,8.10
2023-05-09T00:54:36.158Z,8.20
2023-05-09T00:54:48.993Z,8.10
2023-05-09T00:55:02.884Z,8.05
2023-05-09T00:55:16.431Z,8.43
2023-05-09T00:55:29.666Z,8.60
2023-05-09T00:55:42.273Z,8.38
2023-05-09T00:55:56.713Z,8.55
2023-05-09T00:56:10.102Z,8.57
2023-05-09T00:56:22.824Z,8.30
2023-05-09T00:56:35.847Z,8.18
2023-05-09T00:56:48.444Z,8.63
2023-05-09T00:57:01.178Z,8.50
2023-05-09T00:57:14.475Z,7.90
2023-05-09T00:57:26.984Z,7.95
2023-05-09T00:57:39.645Z,8.27
2023-05-09T00:57:53.131Z,8.52
2023-05-09T00:58:06.150Z,8.40
2023-05-09T00:58:19.468Z,8.07
2023-05-09T00:58:32.240Z,8.15
2023-05-09T00:58:45.295Z,8.35
2023-05-09T00:58:58.107Z,8.30
2023-05-09T00:59:11.086Z,8.30
2023-05-09T00:59:24.756Z,8.27
2023-05-09T00:59:37.619Z,8.10
2023-05-09T00:59:51.625Z,8.18
2023-05-09T01:00:05.107Z,8.40
2023-05-09T01:00:18.466Z,8.60
2023-05-09T01:00:31.356Z,8.15
2023-05-09T01:00:43.857Z,8.20
2023-05-09T01:00:57.712Z,8.52
2023-05-09T01:01:10.410Z,8.65
2023-05-09T01:01:23.166Z,8.35
2023-05-09T01:01:35.817Z,8.07
2023-05-09T01:01:48.376Z,8.15
2023-05-09T01:02:00.939Z,8.30
2023-05-09T01:02:13.815Z,8.50
2023-05-09T01:02:27.330Z,8.30
2023-05-09T01:02:41.610Z,8.52
2023-05-09T01:02:55.618Z,8.75
2023-05-09T01:03:08.540Z,8.38
2023-05-09T01:03:21.439Z,8.10
2023-05-09T01:03:35.346Z,8.52
2023-05-09T01:03:48.567Z,8.60
2023-05-09T01:04:01.215Z,8.27
2023-05-09T01:04:15.637Z,8.05
2023-05-09T01:04:28.424Z,8.32
2023-05-09T01:04:41.791Z,8.75
2023-05-09T01:04:54.568Z,8.90
2023-05-09T01:05:07.778Z,8.85
2023-05-09T01:05:21.324Z,8.35
2023-05-09T01:05:44.908Z,8.50
2023-05-09T01:06:03.288Z,8.27
2023-05-09T01:06:22.675Z,8.30
2023-05-09T01:06:41.164Z,8.35
2023-05-09T01:07:03.508Z,8.43
2023-05-09T01:07:22.134Z,8.50
2023-05-09T01:07:43.631Z,8.68
2023-05-09T01:08:05.699Z,8.30
2023-05-09T01:08:28.336Z,8.50
2023-05-09T01:08:51.209Z,8.65
2023-05-09T01:09:12.060Z,8.30
2023-05-09T01:09:36.600Z,8.07
2023-05-09T01:09:55.639Z,8.38
2023-05-09T01:10:16.233Z,8.18
2023-05-09T01:10:35.250Z,8.55
2023-05-09T01:10:59.359Z,9.00
2023-05-09T01:11:18.518Z,8.50
2023-05-09T01:11:36.410Z,8.57
2023-05-09T01:11:55.774Z,8.50
2023-05-09T01:12:16.835Z,8.60
2023-05-09T01:12:38.663Z,8.43
2023-05-09T01:12:58.176Z,8.70
2023-05-09T01:13:20.959Z,8.43
2023-05-09T01:13:41.511Z,8.40
2023-05-09T01:14:06.681Z,8.32
2023-05-09T01:14:31.119Z,8.32
2023-05-09T01:14:54.388Z,8.60
2023-05-09T01:15:15.582Z,8.57
2023-05-09T01:15:34.198Z,8.32
2023-05-09T01:15:54.432Z,8.73
2023-05-09T01:16:15.429Z,8.43
2023-05-09T01:16:35.094Z,8.73
2023-05-09T01:16:56.359Z,8.35
2023-05-09T01:17:13.673Z,8.93
2023-05-09T01:17:33.890Z,8.60
2023-05-09T01:17:52.752Z,8.27
2023-05-09T01:18:12.873Z,7.95
2023-05-09T01:18:33.577Z,8.43
2023-05-09T01:18:49.925Z,8.65
2023-05-09T01:19:14.012Z,8.20
2023-05-09T01:19:52.118Z,8.05
2023-05-09T01:20:13.146Z,8.32
2023-05-09T01:20:33.728Z,8.38
2023-05-09T01:20:51.892Z,8.65
2023-05-09T01:21:08.844Z,8.65
2023-05-09T01:21:27.969Z,8.52
2023-05-09T01:21:44.428Z,8.48
2023-05-09T01:21:59.455Z,8.40
2023-05-09T01:22:16.221Z,8.43
2023-05-09T01:22:32.727Z,8.13
2023-05-09T01:22:52.755Z,8.30
2023-05-09T01:23:23.978Z,8.38
2023-05-09T01:23:59.555Z,8.60
2023-05-09T01:24:44.625Z,8.80
2023-05-09T01:25:20.815Z,8.93
2023-05-09T01:25:55.380Z,8.90
2023-05-09T01:26:19.213Z,9.27
2023-05-09T01:26:45.154Z,9.07
2023-05-09T01:27:21.150Z,9.10
2023-05-09T01:27:45.232Z,9.07
2023-05-09T01:28:07.798Z,8.57
2023-05-09T01:28:36.396Z,8.65
2023-05-09T01:29:10.625Z,8.90
2023-05-09T01:29:37.284Z,8.65
2023-05-09T01:29:57.052Z,8.23
2023-05-09T01:30:12.947Z,8.55
2023-05-09T01:30:26.857Z,9.30
2023-05-09T01:30:42.445Z,9.20
2023-05-09T01:30:55.602Z,8.52
2023-05-09T01:31:09.525Z,8.55
2023-05-09T01:31:23.024Z,8.55
2023-05-09T01:31:41.915Z,8.82
2023-05-09T01:31:56.699Z,9.07
2023-05-09T01:32:16.110Z,9.20
2023-05-09T01:32:29.847Z,9.05
2023-05-09T01:32:46.580Z,8.80
2023-05-09T01:33:03.642Z,8.98
2023-05-09T01:33:19.190Z,8.93
2023-05-09T01:33:36.435Z,8.90
2023-05-09T01:33:54.225Z,8.88
2023-05-09T01:34:10.046Z,8.98
2023-05-09T01:34:26.473Z,9.07
2023-05-09T01:34:44.229Z,9.07
2023-05-09T01:35:01.522Z,9.10
2023-05-09T01:35:16.068Z,8.98
2023-05-09T01:35:33.286Z,8.75
2023-05-09T01:35:51.879Z,8.60
2023-05-09T01:36:09.634Z,9.15
2023-05-09T01:36:25.558Z,9.75
2023-05-09T01:36:41.448Z,9.52
2023-05-09T01:36:58.643Z,9.50
2023-05-09T01:37:14.619Z,9.23
2023-05-09T01:37:31.710Z,9.20
2023-05-09T01:37:50.387Z,9.38
2023-05-09T01:38:06.323Z,9.18
2023-05-09T01:38:22.100Z,9.55
2023-05-09T01:38:37.461Z,9.57
2023-05-09T01:38:52.623Z,9.23
2023-05-09T01:39:06.349Z,9.05
2023-05-09T01:39:20.488Z,8.93
2023-05-09T01:39:35.860Z,9.48
2023-05-09T01:39:50.374Z,9.63
2023-05-09T01:40:08.366Z,9.40
2023-05-09T01:40:24.086Z,9.30
2023-05-09T01:40:38.411Z,9.30
2023-05-09T01:40:55.783Z,9.57
2023-05-09T01:41:11.283Z,9.60
2023-05-09T01:41:25.881Z,9.48
2023-05-09T01:41:38.448Z,9.35
2023-05-09T01:41:53.772Z,9.48
2023-05-09T01:42:09.654Z,9.60
2023-05-09T01:42:26.450Z,9.40
2023-05-09T01:42:43.662Z,9.65
2023-05-09T01:42:59.536Z,9.90
2023-05-09T01:43:15.088Z,9.55
2023-05-09T01:43:30.398Z,9.45
2023-05-09T01:43:46.584Z,9.10
2023-05-09T01:44:02.122Z,8.98
2023-05-09T01:44:17.077Z,9.25
2023-05-09T01:44:35.696Z,9.48
2023-05-09T01:44:49.739Z,9.50
2023-05-09T01:45:05.751Z,9.30
2023-05-09T01:45:19.974Z,9.27
2023-05-09T01:45:36.100Z,9.50
2023-05-09T01:45:51.418Z,9.38
2023-05-09T01:46:05.579Z,9.00
2023-05-09T01:46:20.913Z,9.10
2023-05-09T01:46:35.345Z,9.10
2023-05-09T01:46:49.159Z,9.20
2023-05-09T01:47:03.892Z,9.02
2023-05-09T01:47:19.305Z,8.95
2023-05-09T01:47:32.333Z,9.07
2023-05-09T01:47:45.140Z,9.00
2023-05-09T01:47:58.888Z,9.40
2023-05-09T01:48:13.423Z,9.38
2023-05-09T01:48:28.879Z,9.40
2023-05-09T01:48:43.582Z,9.90
2023-05-09T01:48:58.057Z,9.40
2023-05-09T01:49:11.857Z,9.30
2023-05-09T01:49:26.119Z,9.73
2023-05-09T01:49:41.532Z,9.35
2023-05-09T01:49:56.484Z,9.43
2023-05-09T01:50:10.942Z,9.90
2023-05-09T01:50:24.747Z,9.65
2023-05-09T01:50:41.014Z,9.32
2023-05-09T01:50:54.892Z,9.43
2023-05-09T01:51:09.485Z,9.48
2023-05-09T01:51:23.048Z,9.23
2023-05-09T01:51:37.584Z,9.40
2023-05-09T01:51:52.399Z,9.75
2023-05-09T01:52:10.196Z,9.63
2023-05-09T01:52:25.683Z,9.32
2023-05-09T01:52:40.028Z,9.77
2023-05-09T01:52:55.938Z,10.00
2023-05-09T01:53:10.609Z,9.88
2023-05-09T01:53:24.323Z,9.82
2023-05-09T01:53:37.328Z,9.77
2023-05-09T01:53:52.349Z,9.48
2023-05-09T01:54:07.548Z,9.25
2023-05-09T01:54:22.420Z,9.38
2023-05-09T01:54:36.595Z,9.73
2023-05-09T01:54:51.463Z,10.02
2023-05-09T01:55:06.592Z,9.88
2023-05-09T01:55:21.611Z,10.10
2023-05-09T01:55:36.278Z,9.82
2023-05-09T01:55:52.760Z,9.68
2023-05-09T01:56:08.004Z,10.25
2023-05-09T01:56:22.417Z,10.02
2023-05-09T01:56:36.519Z,9.63
2023-05-09T01:56:50.236Z,9.75
2023-05-09T01:57:04.017Z,10.07
2023-05-09T01:57:18.845Z,10.30
2023-05-09T01:57:32.833Z,10.00
2023-05-09T01:57:45.926Z,9.95
2023-05-09T01:57:59.841Z,10.15
2023-05-09T01:58:13.473Z,10.25
2023-05-09T01:58:27.168Z,10.10
2023-05-09T01:58:41.027Z,9.98
2023-05-09T01:58:56.106Z,9.60
2023-05-09T01:59:13.608Z,9.70
2023-05-09T01:59:28.896Z,10.30
2023-05-09T01:59:44.812Z,10.40
2023-05-09T01:59:58.456Z,9.75
2023-05-09T02:00:13.300Z,9.57
2023-05-09T02:00:27.239Z,9.90
2023-05-09T02:00:41.565Z,10.00
2023-05-09T02:00:54.472Z,9.73
2023-05-09T02:01:08.824Z,9.48
2023-05-09T02:01:22.494Z,9.63
2023-05-09T02:01:36.106Z,9.60
2023-05-09T02:01:49.713Z,9.55
2023-05-09T02:02:04.686Z,9.80
2023-05-09T02:02:19.062Z,10.15
2023-05-09T02:02:32.922Z,9.90
2023-05-09T02:02:45.988Z,9.65
2023-05-09T02:02:59.360Z,9.65
2023-05-09T02:03:12.183Z,9.80
2023-05-09T02:03:25.947Z,9.70
2023-05-09T02:03:41.343Z,9.77
2023-05-09T02:03:54.786Z,10.07
2023-05-09T02:04:07.478Z,9.93
2023-05-09T02:04:20.938Z,9.95
2023-05-09T02:04:35.734Z,9.68
2023-05-09T02:04:49.029Z,9.90
2023-05-09T02:05:02.995Z,10.43
2023-05-09T02:05:18.256Z,10.00
2023-05-09T02:05:32.568Z,10.00
2023-05-09T02:05:47.415Z,10.25
2023-05-09T02:06:01.175Z,9.77
2023-05-09T02:06:15.251Z,9.63
2023-05-09T02:06:29.866Z,9.80
2023-05-09T02:06:44.643Z,9.88
2023-05-09T02:06:58.035Z,10.13
2023-05-09T02:07:11.635Z,9.85
2023-05-09T02:07:25.160Z,9.60
2023-05-09T02:07:38.904Z,10.27
2023-05-09T02:07:52.138Z,10.50
2023-05-09T02:08:05.683Z,10.30
2023-05-09T02:08:21.251Z,10.45
2023-05-09T02:08:35.099Z,10.60
2023-05-09T02:08:48.428Z,10.52
2023-05-09T02:09:02.123Z,10.55
2023-05-09T02:09:14.725Z,10.13
2023-05-09T02:09:27.338Z,10.32
2023-05-09T02:09:39.868Z,10.32
2023-05-09T02:09:54.307Z,10.32
2023-05-09T02:10:09.209Z,10.15
2023-05-09T02:10:25.492Z,10.35
2023-05-09T02:10:39.376Z,10.55
2023-05-09T02:10:53.165Z,10.60
2023-05-09T02:11:07.144Z,10.44
2023-05-09T02:11:19.858Z,10.45
2023-05-09T02:11:32.381Z,10.55
2023-05-09T02:11:45.051Z,10.40
2023-05-09T02:11:57.567Z,10.40
2023-05-09T02:12:10.162Z,10.68
2023-05-09T02:12:24.721Z,10.80
2023-05-09T02:12:37.376Z,10.38
2023-05-09T02:12:49.912Z,10.20
2023-05-09T02:13:02.565Z,10.27
2023-05-09T02:13:15.612Z,10.35
2023-05-09T02:13:28.270Z,10.23
2023-05-09T02:13:40.858Z,10.32
2023-05-09T02:13:54.397Z,10.60
2023-05-09T02:14:07.336Z,10.55
2023-05-09T02:14:19.850Z,10.18
2023-05-09T02:14:33.763Z,10.35
2023-05-09T02:14:46.337Z,10.57
2023-05-09T02:14:59.536Z,10.50
2023-05-09T02:15:12.242Z,10.45
2023-05-09T02:15:25.906Z,10.35
2023-05-09T02:15:39.959Z,10.38
2023-05-09T02:15:53.075Z,10.88
2023-05-09T02:16:08.336Z,10.95
2023-05-09T02:16:21.241Z,10.93
2023-05-09T02:16:33.908Z,10.77
2023-05-09T02:16:46.452Z,10.57
2023-05-09T02:17:06.180Z,10.65
2023-05-09T02:17:19.897Z,10.50
2023-05-09T02:17:32.769Z,10.98
2023-05-09T02:17:45.737Z,11.30
2023-05-09T02:17:58.339Z,11.02
2023-05-09T02:18:11.108Z,10.63
2023-05-09T02:18:23.627Z,10.50
2023-05-09T02:18:37.312Z,10.38
2023-05-09T02:18:52.747Z,10.50
2023-05-09T02:19:05.380Z,10.93
2023-05-09T02:19:17.898Z,10.82
2023-05-09T02:19:30.373Z,10.38
2023-05-09T02:19:43.066Z,10.50
2023-05-09T02:19:55.571Z,10.75
2023-05-09T02:20:10.103Z,10.85
2023-05-09T02:20:23.632Z,10.50
2023-05-09T02:20:36.256Z,10.70
2023-05-09T02:20:48.836Z,10.60
2023-05-09T02:21:01.996Z,10.63
2023-05-09T02:21:14.656Z,11.00
2023-05-09T02:21:29.127Z,10.90
2023-05-09T02:21:41.917Z,10.60
2023-05-09T02:21:55.491Z,10.77
2023-05-09T02:22:08.312Z,11.27
2023-05-09T02:22:21.352Z,11.15
2023-05-09T02:22:33.892Z,11.07
2023-05-09T02:22:47.030Z,11.15
2023-05-09T02:22:59.773Z,10.85
2023-05-09T02:23:12.584Z,10.68
2023-05-09T02:23:26.288Z,10.90
2023-05-09T02:23:38.928Z,11.25
2023-05-09T02:23:51.536Z,11.35
2023-05-09T02:24:04.865Z,11.52
2023-05-09T02:24:17.424Z,11.55
2023-05-09T02:24:31.972Z,11.30
2023-05-09T02:24:45.248Z,10.93
2023-05-09T02:24:57.766Z,10.85
2023-05-09T02:25:15.204Z,10.95
2023-05-09T02:25:28.528Z,11.25
2023-05-09T02:25:41.326Z,11.38
2023-05-09T02:25:54.593Z,11.20
2023-05-09T02:26:07.904Z,11.38
2023-05-09T02:26:20.706Z,11.43
2023-05-09T02:26:35.342Z,11.23
2023-05-09T02:26:48.123Z,11.05
2023-05-09T02:27:01.807Z,11.00
2023-05-09T02:27:15.604Z,10.93
2023-05-09T02:27:28.288Z,11.00
2023-05-09T02:27:42.963Z,11.40
2023-05-09T02:27:58.204Z,11.35
2023-05-09T02:28:12.297Z,11.20
2023-05-09T02:28:27.392Z,11.52
2023-05-09T02:28:41.716Z,11.98
2023-05-09T02:28:54.708Z,11.82
2023-05-09T02:29:08.082Z,11.32
2023-05-09T02:29:23.326Z,11.15
2023-05-09T02:29:44.387Z,11.20
2023-05-09T02:30:01.401Z,11.13
2023-05-09T02:30:24.293Z,11.52
2023-05-09T02:30:42.406Z,11.63
2023-05-09T02:30:57.100Z,11.27
2023-05-09T02:31:13.596Z,11.05
2023-05-09T02:31:28.598Z,11.50
2023-05-09T02:31:42.826Z,11.50
2023-05-09T02:31:56.086Z,11.38
2023-05-09T02:32:11.355Z,10.95
2023-05-09T02:32:29.008Z,10.90
2023-05-09T02:32:44.619Z,11.55
2023-05-09T02:33:03.312Z,11.43
2023-05-09T02:33:16.677Z,11.52
2023-05-09T02:33:30.868Z,11.38
2023-05-09T02:33:46.666Z,11.55
2023-05-09T02:33:59.588Z,11.70
2023-05-09T02:34:13.302Z,11.70
2023-05-09T02:34:26.585Z,11.98
2023-05-09T02:34:41.994Z,11.88
2023-05-09T02:34:55.723Z,11.77
2023-05-09T02:35:10.007Z,11.95
2023-05-09T02:35:25.254Z,11.55
2023-05-09T02:35:39.861Z,11.45
2023-05-09T02:35:53.178Z,12.05
2023-05-09T02:36:07.339Z,11.75
2023-05-09T02:36:21.999Z,11.43
2023-05-09T02:36:35.497Z,11.50
2023-05-09T02:36:48.173Z,11.50
2023-05-09T02:37:01.105Z,11.80
2023-05-09T02:37:15.163Z,11.85
2023-05-09T02:37:28.723Z,11.75
2023-05-09T02:37:41.737Z,11.80
2023-05-09T02:37:55.928Z,12.25
2023-05-09T02:38:08.961Z,12.45
2023-05-09T02:38:21.954Z,12.07
2023-05-09T02:38:35.666Z,11.60
2023-05-09T02:38:48.701Z,11.57
2023-05-09T02:39:01.401Z,11.68
2023-05-09T02:39:14.333Z,12.00
2023-05-09T02:39:26.853Z,12.05
2023-05-09T02:39:40.668Z,12.00
2023-05-09T02:39:53.396Z,11.60
2023-05-09T02:40:09.066Z,11.35
2023-05-09T02:40:22.592Z,11.63
2023-05-09T02:40:36.272Z,11.60
2023-05-09T02:40:52.447Z,11.80
2023-05-09T02:41:05.784Z,11.95
2023-05-09T02:41:19.306Z,11.80
2023-05-09T02:41:32.329Z,11.75
2023-05-09T02:41:48.524Z,11.88
2023-05-09T02:42:06.790Z,11.98
2023-05-09T02:42:22.189Z,11.90
2023-05-09T02:42:35.041Z,12.25
2023-05-09T02:42:48.592Z,12.52
2023-05-09T02:43:01.130Z,12.35
2023-05-09T02:43:15.063Z,12.15
2023-05-09T02:43:27.836Z,12.02
2023-05-09T02:43:40.434Z,11.98
2023-05-09T02:43:53.129Z,12.27
2023-05-09T02:44:05.650Z,12.27
2023-05-09T02:44:18.135Z,11.98
2023-05-09T02:44:30.695Z,11.63
2023-05-09T02:44:45.549Z,11.43
2023-05-09T02:44:58.273Z,11.63
2023-05-09T02:45:11.643Z,12.05
2023-05-09T02:45:24.426Z,12.20
2023-05-09T02:45:37.171Z,12.20
2023-05-09T02:45:49.740Z,12.18
2023-05-09T02:46:03.305Z,12.30
2023-05-09T02:46:16.038Z,12.43
2023-05-09T02:46:28.716Z,12.57
2023-05-09T02:46:41.384Z,12.18
2023-05-09T02:46:53.924Z,12.05
2023-05-09T02:47:07.229Z,12.23
2023-05-09T02:47:20.248Z,11.70
2023-05-09T02:47:33.740Z,11.73
2023-05-09T02:47:46.312Z,11.70
2023-05-09T02:47:59.220Z,11.70
2023-05-09T02:48:11.830Z,12.00
2023-05-09T02:48:24.380Z,12.05
2023-05-09T02:48:37.580Z,12.18
2023-05-09T02:48:50.144Z,12.02
2023-05-09T02:49:02.650Z,12.00
2023-05-09T02:49:30.921Z,12.20
2023-05-09T02:49:44.928Z,11.60
2023-05-09T02:49:57.555Z,11.45
2023-05-09T02:50:10.864Z,11.38
2023-05-09T02:50:23.401Z,11.50
2023-05-09T02:50:38.216Z,11.50
2023-05-09T02:50:50.877Z,11.60
2023-05-09T02:51:04.575Z,11.80
2023-05-09T02:51:17.061Z,11.57
2023-05-09T02:51:29.565Z,11.43
2023-05-09T02:51:42.077Z,11.65
2023-05-09T02:51:54.641Z,11.77
2023-05-09T02:52:08.202Z,11.82
2023-05-09T02:52:21.396Z,11.57
2023-05-09T02:52:33.954Z,11.48
2023-05-09T02:52:46.524Z,11.70
2023-05-09T02:52:59.104Z,11.93
2023-05-09T02:53:12.002Z,11.82
2023-05-09T02:53:25.559Z,11.98
2023-05-09T02:53:38.121Z,12.23
2023-05-09T02:53:50.649Z,12.35
2023-05-09T02:54:03.545Z,12.48
2023-05-09T02:54:16.076Z,12.23
2023-05-09T02:54:28.593Z,11.82
2023-05-09T02:54:41.405Z,11.75
2023-05-09T02:54:53.968Z,12.02
2023-05-09T02:55:08.766Z,12.38
2023-05-09T02:55:21.330Z,12.15
2023-05-09T02:55:33.863Z,11.82
2023-05-09T02:55:46.572Z,11.27
2023-05-09T02:55:59.351Z,11.43
2023-05-09T02:56:11.909Z,12.20
2023-05-09T02:56:24.421Z,12.45
2023-05-09T02:56:36.988Z,12.38
2023-05-09T02:56:50.804Z,12.20
2023-05-09T02:57:03.633Z,12.40
2023-05-09T02:57:16.308Z,12.50
2023-05-09T02:57:28.805Z,12.35
2023-05-09T02:57:41.327Z,12.05
2023-05-09T02:58:02.150Z,12.00
2023-05-09T02:58:26.042Z,12.07
2023-05-09T02:58:38.583Z,12.10
2023-05-09T02:58:51.526Z,12.30
2023-05-09T02:59:04.087Z,12.60
2023-05-09T02:59:18.329Z,12.95
2023-05-09T02:59:31.101Z,12.73
2023-05-09T02:59:45.247Z,12.40
2023-05-09T02:59:57.725Z,12.30
2023-05-09T03:00:12.767Z,12.20
2023-05-09T03:00:25.980Z,12.18
2023-05-09T03:00:38.478Z,11.82
2023-05-09T03:00:51.031Z,11.85
2023-05-09T03:01:03.705Z,12.10
2023-05-09T03:01:16.272Z,12.27
2023-05-09T03:01:29.892Z,12.05
2023-05-09T03:01:42.532Z,12.32
2023-05-09T03:01:55.178Z,12.38
2023-05-09T03:02:07.740Z,12.20
2023-05-09T03:02:20.409Z,12.23
2023-05-09T03:02:33.062Z,11.95
2023-05-09T03:02:47.183Z,11.68
2023-05-09T03:03:00.614Z,12.18
2023-05-09T03:03:14.392Z,12.13
2023-05-09T03:03:27.312Z,11.85
2023-05-09T03:03:40.030Z,12.48
2023-05-09T03:03:53.012Z,12.48
2023-05-09T03:04:05.575Z,12.77
2023-05-09T03:04:18.262Z,13.00
2023-05-09T03:04:30.957Z,13.07
2023-05-09T03:04:43.456Z,12.90
2023-05-09T03:04:56.973Z,13.07
2023-05-09T03:05:09.747Z,12.82
2023-05-09T03:05:22.334Z,12.82
2023-05-09T03:05:35.200Z,12.65
2023-05-09T03:05:47.689Z,12.10
2023-05-09T03:06:00.285Z,12.07
2023-05-09T03:06:14.288Z,12.15
2023-05-09T03:06:26.771Z,12.50
2023-05-09T03:06:39.251Z,12.40
2023-05-09T03:06:51.879Z,12.77
2023-05-09T03:07:04.588Z,12.95
2023-05-09T03:07:17.369Z,13.32
2023-05-09T03:07:29.955Z,13.10
2023-05-09T03:07:42.495Z,13.13
2023-05-09T03:07:56.012Z,13.35
2023-05-09T03:08:08.524Z,13.13
2023-05-09T03:08:21.044Z,13.25
2023-05-09T03:08:33.599Z,12.77
2023-05-09T03:08:46.128Z,12.48
2023-05-09T03:08:58.628Z,12.57
2023-05-09T03:09:11.544Z,12.32
2023-05-09T03:09:24.059Z,12.45
2023-05-09T03:09:40.416Z,12.25
2023-05-09T03:09:53.640Z,12.27